Latest Weather Observations for Bendigo

IDV60801

Issued at 9:35 am EDT Saturday 29 November 2014 (issued every 30 minutes, with the page automatically refreshed every 10 minutes)

About weather observations | Map of weather stations | Latest weather observations for VIC | Other Formats
Station Details ID: 081123 Name: BENDIGO AIRPORT Lat: -36.74 Lon: 144.33 Height: 208.0 m
Data from the previous 72 hours. | See also: Recent months at Bendigo
Date/Time
EDT
Temp
°C
App
Temp
°C
Dew
Point
Rel
Hum
%
Delta-T
°C
Wind Press
QNH
hPa
Press
MSL
hPa
Rain
since 9 am
mm
Dir
 
Spd
km/h
Gust
km/h
Spd
kts
Gust
kts
29/09:30am 24.0 20.8 9.9 41 7.8 ESE 17 24 9 13 1015.0 1014.6 0.0
29/09:00am 21.5 18.8 10.3 49 6.1 SE 15 20 8 11 1015.5 1015.1 0.0
29/08:30am 19.3 16.3 9.2 52 5.4 SE 15 20 8 11 1015.6 1015.2 0.0
29/08:00am 18.1 14.6 8.9 55 4.8 SE 17 20 9 11 1015.7 1015.3 0.0
29/07:30am 16.7 12.5 8.4 58 4.3 SSE 20 28 11 15 1015.5 1015.1 0.0
29/07:00am 15.4 10.8 8.2 62 3.7 SSE 22 28 12 15 1015.4 1015.0 0.0
29/06:30am 14.9 10.6 7.9 63 3.5 SSE 20 28 11 15 1015.4 1015.0 0.0
29/06:00am 14.3 10.5 7.6 64 3.3 SSE 17 20 9 11 1015.3 1014.9 0.0
29/05:30am 14.4 10.3 7.7 64 3.4 SSE 19 26 10 14 1015.2 1014.8 0.0
29/05:00am 13.8 9.5 7.8 67 3.0 SSE 20 28 11 15 1015.0 1014.6 0.0
29/04:30am 13.1 10.1 7.8 70 2.6 SSE 13 19 7 10 1014.9 1014.5 0.0
29/04:00am 13.7 10.3 7.7 67 3.0 SSE 15 20 8 11 1014.9 1014.5 0.0
29/03:30am 13.5 10.5 7.7 68 2.9 SE 13 20 7 11 1014.8 1014.4 0.0
29/03:00am 14.0 9.8 7.5 65 3.2 SE 19 28 10 15 1015.0 1014.6 0.0
29/02:30am 13.8 8.7 7.8 67 3.0 SSE 24 32 13 17 1015.0 1014.6 0.0
29/02:00am 13.6 9.0 8.2 70 2.7 SSE 22 30 12 16 1015.3 1014.9 0.0
29/01:30am 14.0 9.1 8.4 69 2.8 SSE 24 32 13 17 1015.4 1015.0 0.0
29/01:00am 14.1 9.2 8.5 69 2.8 SSE 24 33 13 18 1015.7 1015.3 0.0
29/12:30am 14.5 9.9 8.2 66 3.2 SSE 22 32 12 17 1016.0 1015.6 0.0
29/12:00am 15.0 9.7 8.5 65 3.3 SSE 26 35 14 19 1016.3 1015.9 0.0
 
Date/Time
EDT
Temp
°C
App
Temp
°C
Dew
Point
Rel
Hum
%
Delta-T
°C
Wind Press
QNH
hPa
Press
MSL
hPa
Rain
since 9 am
mm
Dir
 
Spd
km/h
Gust
km/h
Spd
kts
Gust
kts
28/11:30pm 15.5 9.9 8.7 64 3.5 SSE 28 35 15 19 1016.6 1016.3 0.0
28/11:00pm 16.3 10.8 9.0 62 3.8 SSE 28 37 15 20 1016.9 1016.5 0.0
28/10:30pm 17.2 11.8 9.4 60 4.1 SSE 28 35 15 19 1017.0 1016.6 0.0
28/10:00pm 18.4 14.2 9.7 57 4.6 SSE 22 32 12 17 1017.0 1016.6 0.0
28/09:30pm 20.1 15.6 9.9 52 5.5 SSE 24 33 13 18 1016.6 1016.3 0.0
28/09:00pm 21.2 17.1 10.1 49 6.1 SSE 22 32 12 17 1016.4 1016.1 0.0
28/08:30pm 22.9 19.2 10.0 44 7.1 SE 20 30 11 16 1016.2 1015.8 0.0
28/08:00pm 24.2 20.0 9.8 40 7.9 SE 22 32 12 17 1015.9 1015.5 0.0
28/07:30pm 25.6 20.6 9.4 36 9.0 SE 26 37 14 20 1015.6 1015.2 0.0
28/07:25pm 26.3 20.1 9.2 34 9.5 SSE 32 37 17 20 1015.5 1015.1 0.0
28/07:00pm 28.2 25.8 5.1 23 12.0 SSE 7 15 4 8 1015.4 1015.0 0.0
28/06:30pm 28.3 25.9 5.2 23 12.1 SW 7 20 4 11 1015.4 1015.0 0.0
28/06:00pm 28.6 26.4 6.1 24 11.9 S 7 15 4 8 1015.4 1015.0 0.0
28/05:30pm 28.4 24.6 4.0 21 12.5 E 13 20 7 11 1015.7 1015.3 0.0
28/05:00pm 28.7 26.8 4.9 22 12.4 ENE 4 11 2 6 1015.8 1015.4 0.0
28/04:30pm 28.4 25.9 6.5 25 11.7 SSE 9 19 5 10 1016.0 1015.6 0.0
28/04:00pm 28.2 25.4 6.9 26 11.4 NE 11 17 6 9 1016.4 1016.1 0.0
28/03:30pm 28.4 27.3 7.1 26 11.5 SW 2 11 1 6 1017.1 1016.7 0.0
28/03:00pm 27.7 25.2 6.5 26 11.3 NW 9 17 5 9 1017.5 1017.1 0.0
28/02:30pm 27.3 24.6 7.2 28 10.8 NNE 11 20 6 11 1018.0 1017.6 0.0
28/02:00pm 26.8 25.3 9.2 33 9.7 SSE 7 20 4 11 1018.5 1018.1 0.0
28/01:30pm 25.9 23.7 9.3 35 9.2 NNE 11 17 6 9 1019.1 1018.7 0.0
28/01:00pm 25.2 23.9 9.9 38 8.5 SW 7 11 4 6 1019.6 1019.2 0.0
28/12:30pm 24.5 23.0 9.3 38 8.3 ESE 7 15 4 8 1020.0 1019.6 0.0
28/12:00pm 23.6 21.6 10.3 43 7.4 NE 11 17 6 9 1020.4 1020.0 0.0
28/11:30am 22.6 22.0 10.4 46 6.8 SSE 4 9 2 5 1020.5 1020.2 0.0
28/11:00am 21.8 20.7 10.6 49 6.2 E 7 20 4 11 1021.0 1020.7 0.0
28/10:30am 20.7 18.4 10.5 52 5.6 E 13 22 7 12 1021.3 1021.0 0.0
28/10:00am 19.4 16.5 9.6 53 5.2 E 15 26 8 14 1021.7 1021.4 0.0
28/09:30am 18.1 14.2 8.7 54 4.9 SE 19 30 10 16 1022.0 1021.6 0.0
28/09:00am 16.9 13.2 8.1 56 4.5 SE 17 26 9 14 1022.2 1021.8 0.0
28/08:30am 14.8 9.6 7.1 60 3.8 SE 24 35 13 19 1022.2 1021.8 0.0
28/08:00am 13.5 8.6 6.8 64 3.3 SE 22 32 12 17 1021.9 1021.5 0.0
28/07:30am 12.0 7.1 6.7 70 2.6 SSE 22 33 12 18 1021.5 1021.2 0.0
28/07:00am 10.6 6.0 6.4 75 2.0 SSE 20 32 11 17 1021.2 1020.9 0.0
28/06:30am 9.9 4.8 6.1 77 1.8 SSE 22 28 12 15 1020.7 1020.4 0.0
28/06:00am 9.4 4.6 5.8 78 1.7 SSE 20 28 11 15 1020.2 1019.8 0.0
28/05:30am 9.6 4.4 5.6 76 1.8 SSE 22 32 12 17 1019.8 1019.4 0.0
28/05:00am 9.8 4.2 5.6 75 1.9 SSE 24 32 13 17 1019.4 1019.0 0.0
28/04:30am 10.0 4.1 5.6 74 2.0 SSE 26 32 14 17 1019.2 1018.8 0.0
28/04:00am 9.8 5.0 5.8 76 1.9 SSE 20 32 11 17 1019.1 1018.7 0.0
28/03:30am 9.8 5.0 5.6 75 1.9 SSE 20 28 11 15 1019.1 1018.7 0.0
28/03:00am 10.1 4.5 5.5 73 2.1 SSE 24 30 13 16 1019.2 1018.8 0.0
28/02:30am 10.3 5.1 5.5 72 2.2 SSE 22 30 12 16 1019.5 1019.1 0.0
28/02:00am 10.6 5.0 5.6 71 2.3 SSE 24 33 13 18 1019.6 1019.2 0.0
28/01:30am 10.6 5.0 5.4 70 2.4 SSE 24 32 13 17 1019.8 1019.4 0.0
28/01:00am 11.0 5.0 5.3 68 2.6 SSE 26 35 14 19 1020.2 1019.8 0.0
28/12:30am 11.3 5.3 5.4 67 2.7 SSE 26 39 14 21 1020.5 1020.2 0.0
28/12:00am 11.6 5.9 5.0 64 3.0 SSE 24 33 13 18 1020.8 1020.5 0.0
 
Date/Time
EDT
Temp
°C
App
Temp
°C
Dew
Point
Rel
Hum
%
Delta-T
°C
Wind Press
QNH
hPa
Press
MSL
hPa
Rain
since 9 am
mm
Dir
 
Spd
km/h
Gust
km/h
Spd
kts
Gust
kts
27/11:30pm 11.9 6.2 5.1 63 3.2 SSE 24 32 13 17 1021.1 1020.8 0.0
27/11:00pm 12.4 7.7 5.3 62 3.3 SSE 19 28 10 15 1021.4 1021.1 0.0
27/10:30pm 13.0 8.2 5.7 61 3.5 SSE 20 26 11 14 1021.5 1021.2 0.0
27/10:00pm 13.8 8.6 5.7 58 3.9 SSE 22 32 12 17 1021.3 1021.0 0.0
27/09:30pm 14.7 9.5 5.5 54 4.4 SSE 22 30 12 16 1021.2 1020.9 0.0
27/09:00pm 15.8 10.6 3.6 44 5.6 SSE 20 28 11 15 1021.1 1020.8 0.0
27/08:30pm 17.3 10.7 2.1 36 6.9 SSE 26 37 14 20 1021.1 1020.8 0.0
27/08:00pm 18.6 13.1 2.0 33 7.6 SSE 20 28 11 15 1021.0 1020.7 0.0
27/07:30pm 20.1 14.2 2.0 30 8.4 SSE 22 32 12 17 1020.8 1020.5 0.0
27/07:00pm 21.3 15.0 3.5 31 8.6 SSE 26 37 14 20 1020.6 1020.3 0.0
27/06:30pm 22.4 16.6 4.5 31 8.9 SE 24 32 13 17 1020.3 1019.9 0.0
27/06:00pm 23.4 17.7 4.9 30 9.3 SSE 24 35 13 19 1020.2 1019.8 0.0
27/05:30pm 23.9 18.2 4.8 29 9.6 S 24 35 13 19 1020.2 1019.8 0.0
27/05:00pm 24.2 18.1 2.9 25 10.4 SE 24 33 13 18 1020.2 1019.8 0.0
27/04:30pm 24.6 19.2 4.4 27 10.2 SSE 22 32 12 17 1020.3 1019.9 0.0
27/04:00pm 25.5 20.5 3.5 24 10.9 SE 19 32 10 17 1020.4 1020.0 0.0
27/03:30pm 24.5 19.2 2.0 23 10.8 SSE 19 30 10 16 1020.7 1020.4 0.0
27/03:00pm 24.6 19.5 3.3 25 10.5 SSE 19 30 10 16 1020.9 1020.6 0.0
27/02:30pm 24.4 19.3 0.7 21 11.1 S 17 32 9 17 1021.3 1021.0 0.0
27/02:00pm 23.8 18.9 4.2 28 9.7 SE 19 30 10 16 1021.7 1021.4 0.0
27/01:30pm 23.9 19.6 3.2 26 10.1 SSE 15 28 8 15 1021.9 1021.5 0.0
27/01:00pm 22.9 18.3 3.9 29 9.3 ESE 17 24 9 13 1022.2 1021.8 0.0
27/12:30pm 22.3 17.0 2.9 28 9.3 ESE 20 24 11 13 1022.4 1022.0 0.0
27/12:00pm 21.5 16.4 4.1 32 8.5 SSE 20 32 11 17 1022.7 1022.3 0.0
27/11:30am 20.2 16.1 4.3 35 7.7 SSE 15 26 8 14 1022.9 1022.5 0.0
27/11:00am 19.1 13.6 1.6 31 8.0 SE 20 32 11 17 1023.1 1022.7 0.0
27/10:30am 18.2 13.2 4.7 41 6.5 SE 20 35 11 19 1023.2 1022.8 0.0
27/10:00am 17.2 12.2 4.5 43 6.0 SSE 20 33 11 18 1023.4 1023.0 0.0
27/09:30am 15.8 10.8 6.3 53 4.7 SE 22 32 12 17 1023.4 1023.0 0.0
27/09:00am 14.5 9.0 6.1 57 4.1 S 24 33 13 18 1023.6 1023.2 0.0
27/08:30am 13.7 8.2 6.1 60 3.7 SE 24 37 13 20 1023.5 1023.1 0.0
27/08:00am 12.3 6.8 5.9 65 3.0 SSE 24 35 13 19 1023.3 1022.9 0.0
27/07:30am 11.5 6.9 6.4 71 2.4 S 20 32 11 17 1023.0 1022.6 0.0
27/07:00am 10.5 7.5 6.1 74 2.1 S 11 17 6 9 1023.0 1022.6 0.0
27/06:30am 9.6 6.2 5.8 77 1.8 S 13 20 7 11 1022.9 1022.5 0.0
27/06:00am 9.0 5.2 5.6 79 1.6 S 15 19 8 10 1022.6 1022.2 0.0
27/05:30am 8.8 6.1 5.4 79 1.6 S 9 15 5 8 1022.6 1022.2 0.0
27/05:00am 9.0 6.3 5.4 78 1.6 SSW 9 13 5 7 1022.4 1022.0 0.0
27/04:30am 9.2 6.5 5.6 78 1.7 SSW 9 11 5 6 1022.2 1021.8 0.0
27/04:00am 10.0 6.6 5.8 75 1.9 S 13 19 7 10 1022.1 1021.7 0.0
27/03:30am 10.6 6.5 6.0 73 2.2 S 17 24 9 13 1021.9 1021.5 0.0
27/03:00am 11.0 7.0 6.7 75 2.0 S 17 26 9 14 1022.1 1021.7 0.0
27/02:30am 11.3 7.4 7.0 75 2.1 S 17 30 9 16 1022.3 1021.9 0.0
27/02:00am 11.0 8.0 7.5 79 1.7 S 13 19 7 10 1022.6 1022.2 0.0
27/01:30am 11.0 7.7 7.9 81 1.5 S 15 19 8 10 1022.8 1022.4 0.0
27/01:00am 11.1 7.1 8.3 83 1.4 SSE 19 24 10 13 1023.0 1022.6 0.0
27/12:30am 11.4 7.9 8.8 84 1.3 SSE 17 24 9 13 1023.2 1022.8 0.0
27/12:00am 11.6 8.9 8.8 83 1.4 SSE 13 17 7 9 1023.4 1023.0 0.0
 
Date/Time
EDT
Temp
°C
App
Temp
°C
Dew
Point
Rel
Hum
%
Delta-T
°C
Wind Press
QNH
hPa
Press
MSL
hPa
Rain
since 9 am
mm
Dir
 
Spd
km/h
Gust
km/h
Spd
kts
Gust
kts
26/11:30pm 12.3 8.9 9.0 80 1.7 SSE 17 26 9 14 1023.2 1022.8 0.0
26/11:00pm 12.6 9.6 9.4 81 1.6 SSE 15 24 8 13 1023.2 1022.8 0.0
26/10:30pm 13.1 10.2 9.5 79 1.9 SE 15 20 8 11 1023.1 1022.7 0.0
26/10:00pm 13.7 9.5 9.6 76 2.1 SE 22 35 12 19 1022.9 1022.5 0.0
26/09:30pm 14.8 11.1 10.2 74 2.4 SE 20 32 11 17 1022.3 1021.9 0.0
26/09:00pm 15.3 12.2 10.3 72 2.6 SSE 17 24 9 13 1021.9 1021.5 0.0
26/08:30pm 16.9 12.2 10.5 66 3.4 SSE 26 35 14 19 1021.4 1021.1 0.0
26/08:00pm 18.0 14.3 10.1 60 4.2 S 20 28 11 15 1020.9 1020.6 0.0
26/07:30pm 20.0 16.1 9.6 51 5.6 S 20 28 11 15 1020.5 1020.2 0.0
26/07:00pm 20.4 15.9 8.7 47 6.2 S 22 35 12 19 1020.1 1019.7 0.0
26/06:30pm 20.8 16.4 9.1 47 6.3 S 22 32 12 17 1019.8 1019.4 0.0
26/06:00pm 21.8 17.1 9.3 45 6.7 SSW 24 35 13 19 1019.8 1019.4 0.0
26/05:30pm 21.0 16.1 8.3 44 6.7 SSW 24 39 13 21 1019.6 1019.2 0.0
26/05:00pm 22.5 18.2 9.3 43 7.1 SSW 22 33 12 18 1019.5 1019.1 0.0
26/04:30pm 22.3 17.5 8.8 42 7.3 SW 24 35 13 19 1019.6 1019.2 0.0
26/04:00pm 23.3 18.7 8.2 38 8.0 SSW 22 37 12 20 1019.5 1019.1 0.0
26/03:30pm 21.7 18.2 8.6 43 7.0 SSW 17 24 9 13 1019.6 1019.2 0.0
26/03:00pm 21.6 18.0 6.7 38 7.6 SW 15 28 8 15 1019.7 1019.3 0.0
26/02:30pm 22.7 19.6 7.3 37 8.1 SW 13 24 7 13 1020.0 1019.6 0.0
26/02:00pm 22.1 18.3 7.5 39 7.6 W 17 26 9 14 1020.3 1019.9 0.0
26/01:30pm 22.4 18.1 7.8 39 7.7 SW 20 30 11 16 1020.6 1020.3 0.0
26/01:00pm 21.1 18.7 8.7 45 6.6 W 11 20 6 11 1020.9 1020.6 0.0
26/12:30pm 19.9 17.6 7.6 45 6.4 S 9 22 5 12 1021.1 1020.8 0.0
26/12:00pm 18.9 16.4 8.0 49 5.6 ESE 11 19 6 10 1021.4 1021.1 0.0
26/11:30am 17.8 15.4 7.0 49 5.5 ESE 9 17 5 9 1021.3 1021.0 0.0
26/11:00am 16.7 13.9 6.8 52 4.9 SSW 11 22 6 12 1021.4 1021.1 0.0
26/10:30am 16.9 13.8 7.3 53 4.8 S 13 20 7 11 1021.5 1021.2 0.0
26/10:00am 15.6 12.3 6.6 55 4.4 SSW 13 20 7 11 1021.5 1021.2 0.0

Other Formats:

Comma delimited format used in spreadsheet applications
http://www.bom.gov.au/fwo/IDV60801/IDV60801.94855.axf

JavaScript Object Notation format (JSON) in row-major order
http://www.bom.gov.au/fwo/IDV60801/IDV60801.94855.json